createdAt,value
2019-01-09T00:02:18.659Z,8.73
2019-01-09T00:04:54.987Z,10.87
2019-01-09T00:07:46.175Z,6.43
2019-01-09T00:10:30.106Z,8.80
2019-01-09T00:13:17.675Z,6.40
2019-01-09T00:15:59.564Z,8.37
2019-01-09T00:18:52.568Z,8.25
2019-01-09T00:21:26.579Z,7.67
2019-01-09T00:24:05.554Z,8.60
2019-01-09T00:26:37.794Z,7.10
2019-01-09T00:29:18.456Z,8.27
2019-01-09T00:31:51.769Z,5.45
2019-01-09T00:34:24.907Z,7.83
2019-01-09T00:36:55.640Z,11.97
2019-01-09T00:39:28.912Z,10.80
2019-01-09T00:42:17.042Z,11.20
2019-01-09T00:45:03.923Z,7.22
2019-01-09T00:48:02.117Z,6.20
2019-01-09T00:50:38.573Z,7.33
2019-01-09T00:53:20.449Z,7.43
2019-01-09T00:59:19.368Z,7.93
2019-01-09T01:02:43.654Z,8.57
2019-01-09T01:06:18.006Z,9.20
2019-01-09T01:09:36.113Z,8.00
2019-01-09T01:12:45.103Z,4.87
2019-01-09T01:16:15.897Z,10.20
2019-01-09T01:19:24.353Z,6.37
2019-01-09T01:23:04.808Z,10.30
2019-01-09T01:25:56.345Z,8.53
2019-01-09T01:29:09.162Z,10.77
2019-01-09T01:32:21.980Z,5.50
2019-01-09T01:35:54.505Z,12.50
2019-01-09T01:38:36.169Z,9.03
2019-01-09T01:41:36.610Z,7.17
2019-01-09T01:44:52.144Z,6.93
2019-01-09T01:48:20.343Z,8.17
2019-01-09T01:51:34.582Z,8.00
2019-01-09T01:54:42.503Z,8.43
2019-01-09T01:58:03.920Z,5.60
2019-01-09T02:01:47.842Z,4.65
2019-01-09T02:05:13.883Z,4.83
2019-01-09T02:09:12.186Z,6.73
2019-01-09T02:12:13.754Z,4.70
2019-01-09T02:15:27.324Z,6.20
2019-01-09T02:18:21.069Z,6.20
2019-01-09T02:21:22.449Z,6.53
2019-01-09T02:24:18.690Z,12.60
2019-01-09T02:27:29.993Z,12.03
2019-01-09T02:31:19.236Z,9.23
2019-01-09T02:33:49.895Z,6.93
2019-01-09T02:36:44.396Z,8.47
2019-01-09T02:39:37.258Z,8.73
2019-01-09T02:42:06.051Z,8.43
2019-01-09T02:47:27.036Z,9.13
2019-01-09T02:50:06.807Z,8.83
2019-01-09T02:54:02.120Z,9.47
2019-01-09T02:55:42.757Z,9.10
2019-01-09T02:58:13.650Z,7.50
2019-01-09T03:00:44.319Z,7.47
2019-01-09T03:03:16.161Z,7.97
2019-01-09T03:06:03.542Z,6.83
2019-01-09T03:08:34.489Z,7.73
2019-01-09T03:11:48.121Z,6.43
2019-01-09T03:16:08.289Z,8.13
2019-01-09T03:18:39.115Z,6.73
2019-01-09T03:21:31.245Z,7.33
2019-01-09T03:27:27.395Z,5.80
2019-01-09T03:30:01.280Z,13.63
2019-01-09T03:32:39.916Z,6.47
2019-01-09T03:35:22.136Z,6.20
2019-01-09T03:38:05.578Z,5.50
2019-01-09T03:40:38.182Z,5.80
2019-01-09T03:43:09.059Z,5.83
2019-01-09T03:45:42.985Z,6.33
2019-01-09T03:48:22.043Z,10.70
2019-01-09T03:50:52.725Z,9.67
2019-01-09T03:53:24.564Z,6.23
2019-01-09T03:55:54.716Z,4.20
2019-01-09T03:58:31.343Z,5.30
2019-01-09T04:01:03.230Z,6.97
2019-01-09T04:03:46.656Z,4.57
2019-01-09T04:06:24.718Z,5.13
2019-01-09T04:08:59.598Z,4.87
2019-01-09T04:11:32.360Z,5.00
2019-01-09T04:14:04.051Z,4.63
2019-01-09T04:16:39.021Z,5.60
2019-01-09T04:19:09.882Z,3.90
2019-01-09T04:21:42.771Z,4.67
2019-01-09T04:24:12.772Z,5.50
2019-01-09T04:26:45.360Z,4.47
2019-01-09T04:29:26.866Z,4.47
2019-01-09T04:31:49.610Z,4.43
2019-01-09T04:34:26.935Z,4.20
2019-01-09T04:37:06.425Z,5.80
2019-01-09T04:39:59.457Z,4.10
2019-01-09T04:42:37.553Z,4.20
2019-01-09T04:45:38.250Z,5.20
2019-01-09T04:48:22.763Z,5.63
2019-01-09T04:51:03.049Z,6.90
2019-01-09T04:53:41.604Z,5.20
2019-01-09T04:56:13.806Z,6.70
2019-01-09T04:58:48.558Z,5.53
2019-01-09T05:02:01.256Z,6.35
2019-01-09T05:04:37.609Z,7.87
2019-01-09T05:07:41.382Z,7.23
2019-01-09T05:10:30.246Z,6.47
2019-01-09T05:13:36.718Z,5.53
2019-01-09T05:16:14.162Z,9.50
2019-01-09T05:19:14.761Z,6.58
2019-01-09T05:21:41.645Z,8.40
2019-01-09T05:24:58.574Z,6.87
2019-01-09T05:27:39.489Z,7.43
2019-01-09T05:30:25.355Z,10.93
2019-01-09T05:32:57.693Z,9.57
2019-01-09T05:35:32.951Z,7.10
2019-01-09T05:38:05.823Z,5.90
2019-01-09T05:43:41.315Z,8.13
2019-01-09T05:46:23.002Z,7.60
2019-01-09T05:48:53.995Z,7.40
2019-01-09T05:52:02.004Z,6.37
2019-01-09T05:54:33.655Z,7.60
2019-01-09T05:57:20.633Z,11.60
2019-01-09T06:00:14.538Z,10.10
2019-01-09T06:03:46.211Z,7.50
2019-01-09T06:06:16.746Z,13.57
2019-01-09T06:09:02.226Z,9.10
2019-01-09T06:11:44.601Z,7.33
2019-01-09T06:14:24.768Z,8.37
2019-01-09T06:17:13.440Z,7.10
2019-01-09T06:19:57.765Z,7.57
2019-01-09T06:32:11.459Z,8.13
2019-01-09T06:34:41.757Z,6.83
2019-01-09T06:37:11.169Z,12.50
2019-01-09T06:39:40.995Z,6.97
2019-01-09T06:42:11.342Z,13.27
2019-01-09T06:44:41.940Z,7.77
2019-01-09T06:47:11.899Z,9.73
2019-01-09T06:49:41.915Z,6.00
2019-01-09T06:52:12.407Z,11.17
2019-01-09T06:54:42.016Z,8.47
2019-01-09T06:57:12.259Z,8.90
2019-01-09T06:59:41.922Z,5.77
2019-01-09T07:05:50.186Z,12.60
2019-01-09T07:08:22.642Z,8.17
2019-01-09T07:17:47.690Z,6.70
2019-01-09T07:28:16.858Z,10.60
2019-01-09T08:13:57.827Z,8.60
2019-01-09T08:16:52.637Z,10.93
2019-01-09T08:19:26.400Z,9.20
2019-01-09T08:26:47.438Z,7.10
2019-01-09T08:29:50.515Z,5.13
2019-01-09T08:32:57.294Z,5.40
2019-01-09T08:44:24.842Z,5.63
2019-01-09T08:55:25.981Z,5.90
2019-01-09T08:55:45.418Z,6.40
2019-01-09T09:30:44.411Z,10.27
2019-01-09T09:34:27.081Z,7.27
2019-01-09T09:52:19.185Z,6.63
2019-01-09T10:11:36.766Z,9.33
2019-01-09T10:15:22.650Z,8.43
2019-01-09T10:25:40.240Z,9.20
2019-01-09T10:32:37.937Z,10.97
2019-01-09T10:35:45.737Z,8.80
2019-01-09T10:43:14.990Z,10.67
2019-01-09T10:57:02.529Z,5.83
2019-01-09T11:04:36.982Z,9.60
2019-01-09T11:10:19.400Z,6.90
2019-01-09T11:27:50.004Z,10.67
2019-01-09T11:30:21.694Z,7.40
2019-01-09T11:33:19.115Z,8.10
2019-01-09T11:40:14.908Z,8.60
2019-01-09T11:43:01.339Z,8.30
2019-01-09T11:49:24.577Z,11.87
2019-01-09T11:51:53.556Z,7.07
2019-01-09T11:54:26.792Z,7.90
2019-01-09T11:56:56.889Z,6.40
2019-01-09T11:59:26.903Z,7.30
2019-01-09T12:01:56.704Z,7.07
2019-01-09T12:04:27.303Z,11.37
2019-01-09T12:06:57.351Z,6.00
2019-01-09T12:09:27.643Z,8.43
2019-01-09T12:11:57.978Z,13.07
2019-01-09T12:14:28.157Z,15.90
2019-01-09T12:16:57.846Z,10.97
2019-01-09T12:19:28.022Z,11.27
2019-01-09T12:21:58.366Z,8.70
2019-01-09T12:24:27.821Z,8.70
2019-01-09T12:26:57.417Z,8.07
2019-01-09T12:29:27.286Z,17.03
2019-01-09T12:31:58.339Z,8.77
2019-01-09T12:34:33.322Z,8.73
2019-01-09T12:37:03.615Z,8.67
2019-01-09T12:39:33.613Z,6.73
2019-01-09T12:42:03.446Z,7.17
2019-01-09T12:44:33.713Z,6.90
2019-01-09T12:47:07.154Z,9.67
2019-01-09T12:49:37.498Z,6.80
2019-01-09T12:52:08.373Z,6.45
2019-01-09T12:54:38.518Z,10.17
2019-01-09T12:57:07.925Z,7.80
2019-01-09T12:59:37.950Z,8.47
2019-01-09T13:02:11.060Z,13.40
2019-01-09T13:04:41.184Z,6.70
2019-01-09T13:07:14.378Z,8.73
2019-01-09T13:09:44.134Z,7.17
2019-01-09T13:12:14.677Z,6.67
2019-01-09T13:14:44.373Z,6.30
2019-01-09T13:17:14.045Z,8.97
2019-01-09T13:19:43.525Z,8.40
2019-01-09T13:22:13.322Z,10.13
2019-01-09T13:24:43.258Z,4.87
2019-01-09T13:27:13.360Z,6.40
2019-01-09T13:29:43.139Z,4.83
2019-01-09T13:32:12.818Z,4.97
2019-01-09T13:34:47.543Z,4.70
2019-01-09T13:37:18.461Z,6.10
2019-01-09T13:39:48.582Z,7.70
2019-01-09T13:42:17.985Z,5.60
2019-01-09T13:44:49.053Z,7.57
2019-01-09T13:47:19.300Z,6.07
2019-01-09T13:49:54.106Z,8.60
2019-01-09T13:52:24.760Z,7.57
2019-01-09T13:54:54.352Z,7.93
2019-01-09T13:57:28.641Z,7.63
2019-01-09T14:00:00.869Z,6.70
2019-01-09T14:02:30.502Z,7.13
2019-01-09T14:05:06.987Z,8.47
2019-01-09T14:07:37.141Z,7.60
2019-01-09T14:10:17.138Z,9.60
2019-01-09T14:12:46.456Z,8.10
2019-01-09T14:15:18.694Z,8.30
2019-01-09T14:17:48.758Z,7.70
2019-01-09T14:20:22.050Z,11.33
2019-01-09T14:22:52.988Z,11.15
2019-01-09T14:25:22.813Z,8.90
2019-01-09T14:27:53.173Z,11.40
2019-01-09T14:30:25.347Z,9.10
2019-01-09T14:32:58.185Z,7.25
2019-01-09T14:35:28.806Z,12.60
2019-01-09T14:38:09.416Z,16.47
2019-01-09T14:40:40.058Z,14.57
2019-01-09T14:43:14.856Z,12.98
2019-01-09T14:46:07.598Z,14.47
2019-01-09T14:48:37.676Z,12.70
2019-01-09T14:51:07.639Z,11.55
2019-01-09T14:53:39.532Z,8.97
2019-01-09T14:56:10.226Z,10.90
2019-01-09T14:58:41.583Z,11.33
2019-01-09T15:01:33.272Z,9.63
2019-01-09T15:15:51.819Z,5.13
2019-01-09T15:26:54.519Z,8.77
2019-01-09T15:30:21.275Z,8.97
2019-01-09T15:33:31.726Z,8.67
2019-01-09T15:39:48.579Z,9.70
2019-01-09T15:45:16.776Z,8.73
2019-01-09T15:47:46.889Z,20.57
2019-01-09T15:50:18.472Z,10.60
2019-01-09T15:52:48.786Z,13.53
2019-01-09T15:55:18.993Z,11.57
2019-01-09T15:57:48.776Z,11.50
2019-01-09T16:00:24.081Z,11.90
2019-01-09T16:02:53.961Z,14.23
2019-01-09T16:05:23.622Z,9.23
2019-01-09T16:07:58.372Z,11.87
2019-01-09T16:10:28.322Z,11.87
2019-01-09T16:12:58.450Z,18.20
2019-01-09T16:15:28.024Z,16.47
2019-01-09T16:17:57.664Z,13.37
2019-01-09T16:20:28.401Z,13.93
2019-01-09T16:22:58.381Z,17.77
2019-01-09T16:25:27.889Z,10.50
2019-01-09T16:27:57.924Z,18.12
2019-01-09T16:30:47.845Z,15.37
2019-01-09T16:33:17.462Z,14.57
2019-01-09T16:35:47.528Z,12.63
2019-01-09T16:38:17.187Z,8.50
2019-01-09T16:40:46.923Z,7.10
2019-01-09T16:43:17.348Z,8.60
2019-01-09T16:45:46.771Z,8.57
2019-01-09T16:48:16.797Z,8.47
2019-01-09T16:50:46.660Z,7.50
2019-01-09T16:53:16.077Z,20.40
2019-01-09T17:20:57.132Z,10.60
2019-01-09T17:23:28.316Z,9.67
2019-01-09T17:26:06.484Z,10.47
2019-01-09T17:28:43.229Z,9.60
2019-01-09T17:31:17.829Z,10.87
2019-01-09T17:34:06.479Z,9.43
2019-01-09T17:40:03.554Z,8.88
2019-01-09T17:42:35.101Z,10.10
2019-01-09T17:45:23.093Z,9.60
2019-01-09T17:48:31.391Z,11.13
2019-01-09T17:51:09.908Z,13.60
2019-01-09T17:53:55.525Z,12.77
2019-01-09T17:56:59.774Z,12.73
2019-01-09T18:00:20.443Z,14.90
2019-01-09T18:02:47.115Z,10.33
2019-01-09T18:05:43.859Z,9.97
2019-01-09T18:08:24.678Z,12.40
2019-01-09T18:10:59.321Z,9.77
2019-01-09T18:14:01.614Z,10.67
2019-01-09T18:17:21.394Z,13.78
2019-01-09T18:23:08.581Z,20.73
2019-01-09T18:25:37.887Z,18.03
2019-01-09T18:28:07.548Z,14.47
2019-01-09T18:30:47.081Z,10.80
2019-01-09T18:34:04.113Z,14.50
2019-01-09T18:37:10.943Z,11.90
2019-01-09T18:40:10.266Z,13.70
2019-01-09T18:43:15.956Z,11.73
2019-01-09T18:46:23.228Z,16.10
2019-01-09T18:49:32.640Z,11.13
2019-01-09T18:52:33.325Z,12.87
2019-01-09T18:55:03.179Z,14.67
2019-01-09T18:57:34.010Z,15.47
2019-01-09T19:00:05.778Z,12.27
2019-01-09T19:02:36.141Z,16.37
2019-01-09T19:05:07.065Z,18.80
2019-01-09T19:07:37.061Z,12.93
2019-01-09T19:10:10.053Z,21.00
2019-01-09T19:12:40.316Z,15.67
2019-01-09T19:15:11.220Z,16.30
2019-01-09T19:17:41.119Z,21.97
2019-01-09T19:20:13.171Z,21.63
2019-01-09T19:22:43.623Z,24.00
2019-01-09T19:25:14.438Z,30.67
2019-01-09T19:27:44.517Z,20.97
2019-01-09T19:30:28.484Z,17.10
2019-01-09T19:32:58.381Z,13.50
2019-01-09T19:35:28.216Z,11.77
2019-01-09T19:37:57.987Z,19.43
2019-01-09T19:40:27.830Z,14.70
2019-01-09T19:42:58.107Z,13.60
2019-01-09T19:45:31.016Z,13.87
2019-01-09T19:48:00.958Z,12.40
2019-01-09T19:50:30.842Z,14.90
2019-01-09T19:53:00.715Z,12.93
2019-01-09T19:55:31.297Z,16.40
2019-01-09T19:58:00.761Z,15.63
2019-01-09T20:00:30.618Z,14.43
2019-01-09T20:03:00.631Z,14.60
2019-01-09T20:05:31.161Z,13.05
2019-01-09T20:08:01.134Z,15.23
2019-01-09T20:10:31.129Z,22.37
2019-01-09T20:13:03.057Z,27.50
2019-01-09T20:15:33.236Z,13.00
2019-01-09T20:18:02.818Z,12.27
2019-01-09T20:20:32.988Z,14.70
2019-01-09T20:23:02.813Z,14.10
2019-01-09T20:25:32.637Z,13.00
2019-01-09T20:28:02.183Z,12.17
2019-01-09T20:30:31.790Z,15.07
2019-01-09T20:33:02.906Z,18.07
2019-01-09T20:35:32.888Z,11.60
2019-01-09T20:38:02.726Z,13.53
2019-01-09T20:40:32.564Z,14.90
2019-01-09T20:43:02.652Z,12.30
2019-01-09T20:45:32.269Z,12.73
2019-01-09T20:48:02.489Z,13.03
2019-01-09T20:50:32.763Z,15.67
2019-01-09T20:53:02.595Z,12.60
2019-01-09T20:55:32.235Z,12.20
2019-01-09T20:58:02.040Z,10.53
2019-01-09T21:00:31.811Z,15.10
2019-01-09T21:03:10.877Z,12.50
2019-01-09T21:05:49.352Z,14.13
2019-01-09T21:08:19.355Z,11.90
2019-01-09T21:10:54.821Z,9.63
2019-01-09T21:13:24.978Z,10.17
2019-01-09T21:15:55.352Z,10.23
2019-01-09T21:18:26.148Z,18.00
2019-01-09T21:20:56.930Z,10.50
2019-01-09T21:23:27.017Z,12.50
2019-01-09T21:25:56.748Z,10.17
2019-01-09T21:28:27.086Z,12.50
2019-01-09T21:30:56.776Z,9.63
2019-01-09T21:35:01.024Z,10.63
2019-01-09T21:37:18.659Z,10.20
2019-01-09T21:43:57.226Z,14.97
2019-01-09T21:49:47.275Z,12.90
2019-01-09T21:52:28.907Z,12.47
2019-01-09T21:55:23.902Z,13.73
2019-01-09T21:58:19.057Z,15.27
2019-01-09T22:00:48.031Z,13.87
2019-01-09T22:03:29.169Z,18.87
2019-01-09T22:06:15.457Z,14.47
2019-01-09T22:08:50.214Z,14.38
2019-01-09T22:11:35.902Z,15.10
2019-01-09T22:14:08.701Z,19.17
2019-01-09T22:16:40.776Z,26.17
2019-01-09T22:19:25.003Z,13.20
2019-01-09T22:21:59.178Z,14.17
2019-01-09T22:25:25.854Z,15.60
2019-01-09T22:28:12.967Z,13.73
2019-01-09T22:31:02.487Z,11.47
2019-01-09T22:33:33.933Z,13.03
2019-01-09T22:36:21.473Z,16.40
2019-01-09T22:38:59.096Z,13.90
2019-01-09T22:41:36.187Z,11.80
2019-01-09T22:44:10.383Z,12.60
2019-01-09T22:47:16.103Z,9.00
2019-01-09T22:49:53.989Z,13.20
2019-01-09T22:52:49.045Z,13.17
2019-01-09T22:55:24.123Z,13.23
2019-01-09T22:58:08.981Z,11.53
2019-01-09T23:01:01.209Z,13.83
2019-01-09T23:04:19.030Z,10.07
2019-01-09T23:06:57.908Z,9.70
2019-01-09T23:09:30.675Z,11.13
2019-01-09T23:12:21.774Z,13.00
2019-01-09T23:15:06.783Z,10.77
2019-01-09T23:17:44.545Z,9.67
2019-01-09T23:20:27.330Z,10.03
2019-01-09T23:23:03.343Z,8.77
2019-01-09T23:25:58.578Z,12.70
2019-01-09T23:28:29.406Z,11.17
2019-01-09T23:31:46.330Z,10.70
2019-01-09T23:34:45.391Z,10.40
2019-01-09T23:37:14.079Z,9.37
2019-01-09T23:39:45.433Z,11.63
2019-01-09T23:42:32.083Z,12.40
2019-01-09T23:45:04.099Z,11.33
2019-01-09T23:47:46.719Z,11.93
2019-01-09T23:50:29.798Z,11.83
2019-01-09T23:53:13.795Z,10.60
2019-01-09T23:55:52.911Z,12.18
